nws-alerts: Checking more than four warning/county codes can delay the loading of your pages. You should use a cron job to get the data.
^^
Monroeville - KPAMUNIC2 Historical Data
 
Daily Summary for June 14, 2024 Units:  English    Metric   Both
Daily Weekly Monthly Yearly
  Current: High: Low: Average:
Temperature: 65.5 °F 79.7 °F 62.4 °F 70.3 °F
Dew Point: 64.6 °F 71.4 °F 58.5 °F 63.7 °F
Humidity: 97% 97% 60.7% 80%
Wind Speed: 0mph 2.7mph 0mph 0.4mph
Wind Gust: 1.6mph 9.6mph - -
WindCalm - - SSW
Pressure: 29.94 in 29.94 in 29.88 in -
Precipitation: 0.61 in      
 
 
Tabular Data for June 14, 2024
Time Temperature Dew Point Pressure Wind Wind Speed Wind Gust Humidity Rainfall Rate (Hourly) solar
00:04 66.6 °F 58.5 °F 29.92 in Calm   2 mph 75.2% 0.00 in 0 W/m2
00:09 66.4 °F 58.6 °F 29.92 in NE 0.2 mph 1.8 mph 76% 0.00 in 0 W/m2
00:14 66.3 °F 58.6 °F 29.91 in NE 0.2 mph 1.8 mph 76.1% 0.00 in 0 W/m2
00:19 66.2 °F 58.7 °F 29.92 in ENE 0.1 mph 1.8 mph 76.7% 0.00 in 0 W/m2
00:24 66.2 °F 58.8 °F 29.92 in ENE 0.1 mph 1.6 mph 77% 0.00 in 0 W/m2
00:29 66.1 °F 58.7 °F 29.92 in Calm   1.3 mph 77% 0.00 in 0 W/m2
00:34 66 °F 58.7 °F 29.92 in ENE 0.1 mph 1.6 mph 77.3% 0.00 in 0 W/m2
00:39 65.8 °F 58.8 °F 29.92 in NE 0.1 mph 1.6 mph 78% 0.00 in 0 W/m2
00:44 65.8 °F 58.7 °F 29.91 in NNE 0.4 mph 2.7 mph 78% 0.00 in 0 W/m2
00:49 65.7 °F 58.8 °F 29.91 in NNE 0.1 mph 1.8 mph 78.4% 0.00 in 0 W/m2
00:54 65.6 °F 58.9 °F 29.92 in Calm   1.3 mph 79% 0.00 in 0 W/m2
00:59 65.2 °F 58.8 °F 29.92 in Calm   1.3 mph 79.6% 0.00 in 0 W/m2
01:04 65 °F 58.7 °F 29.92 in Calm   1.3 mph 80% 0.00 in 0 W/m2
01:09 64.8 °F 58.5 °F 29.92 in Calm   1.3 mph 80.1% 0.00 in 0 W/m2
01:14 64.8 °F 58.8 °F 29.92 in Calm   1.1 mph 81% 0.00 in 0 W/m2
01:19 64.6 °F 58.6 °F 29.92 in Calm   1.3 mph 81% 0.00 in 0 W/m2
01:24 64.5 °F 58.7 °F 29.92 in Calm   1.1 mph 81.7% 0.00 in 0 W/m2
01:29 64.4 °F 58.8 °F 29.92 in Calm   1.3 mph 82% 0.00 in 0 W/m2
01:34 64.2 °F 58.6 °F 29.92 in ENE 0.1 mph 1.6 mph 82% 0.00 in 0 W/m2
01:39 64.1 °F 58.5 °F 29.91 in NE 0.2 mph 1.8 mph 82% 0.00 in 0 W/m2
01:44 64 °F 58.6 °F 29.92 in ENE 0.1 mph 1.8 mph 82.5% 0.00 in 0 W/m2
01:49 63.9 °F 58.6 °F 29.92 in Calm   1.8 mph 83% 0.00 in 0 W/m2
01:54 63.8 °F 58.6 °F 29.92 in East 0.2 mph 1.6 mph 83.2% 0.00 in 0 W/m2
01:59 63.7 °F 58.8 °F 29.92 in NE 0.4 mph 1.8 mph 83.9% 0.00 in 0 W/m2
02:04 63.7 °F 58.8 °F 29.92 in NE 0.2 mph 1.8 mph 84% 0.00 in 0 W/m2
02:09 63.7 °F 58.8 °F 29.92 in Calm   1.3 mph 84% 0.00 in 0 W/m2
02:14 63.6 °F 58.7 °F 29.92 in ENE 0.2 mph 1.6 mph 84% 0.00 in 0 W/m2
02:19 63.7 °F 58.8 °F 29.91 in NE 0.2 mph 1.6 mph 84% 0.00 in 0 W/m2
02:24 63.5 °F 58.6 °F 29.91 in NE 0.2 mph 1.8 mph 84% 0.00 in 0 W/m2
02:29 63.5 °F 58.6 °F 29.92 in Calm   1.8 mph 84.1% 0.00 in 0 W/m2
02:34 63.5 °F 58.8 °F 29.92 in Calm   1.6 mph 85% 0.00 in 0 W/m2
02:39 63.3 °F 58.8 °F 29.92 in Calm   1.6 mph 85% 0.00 in 0 W/m2
02:44 63.1 °F 58.6 °F 29.92 in Calm   1.3 mph 85% 0.00 in 0 W/m2
02:49 63 °F 58.5 °F 29.92 in Calm   1.3 mph 85.4% 0.00 in 0 W/m2
02:54 62.9 °F 58.6 °F 29.91 in Calm   1.1 mph 86% 0.00 in 0 W/m2
02:59 62.8 °F 58.5 °F 29.91 in Calm   1.1 mph 86% 0.00 in 0 W/m2
03:04 62.6 °F 58.5 °F 29.91 in Calm   1.3 mph 86.6% 0.00 in 0 W/m2
03:09 62.7 °F 58.7 °F 29.91 in Calm   1.3 mph 87% 0.00 in 0 W/m2
03:14 62.6 °F 58.6 °F 29.91 in Calm   1.1 mph 87% 0.00 in 0 W/m2
03:19 62.4 °F 58.5 °F 29.92 in North 0.1 mph 1.3 mph 87% 0.00 in 0 W/m2
03:24 62.4 °F 58.5 °F 29.91 in Calm   1.1 mph 87% 0.00 in 0 W/m2
03:29 62.4 °F 58.7 °F 29.91 in Calm   1.3 mph 87.8% 0.00 in 0 W/m2
03:34 62.6 °F 59 °F 29.91 in Calm   1.6 mph 88% 0.00 in 0 W/m2
03:39 62.7 °F 59.1 °F 29.91 in North 0.1 mph 1.8 mph 88% 0.00 in 0 W/m2
03:44 62.8 °F 59 °F 29.91 in Calm   1.8 mph 87.5% 0.00 in 0 W/m2
03:49 63 °F 59 °F 29.90 in Calm   1.3 mph 87% 0.00 in 0 W/m2
03:54 63.2 °F 59.1 °F 29.90 in SE 0.3 mph 1.6 mph 86.4% 0.00 in 0 W/m2
03:59 63.4 °F 59.1 °F 29.90 in NE 0.2 mph 1.8 mph 86% 0.00 in 0 W/m2
04:04 63.6 °F 59.3 °F 29.90 in NNE 0.5 mph 2 mph 86% 0.00 in 0 W/m2
04:09 64 °F 59.5 °F 29.90 in NE 0.1 mph 1.8 mph 85.6% 0.00 in 0 W/m2
04:14 64.2 °F 59.7 °F 29.90 in Calm   1.8 mph 85.7% 0.00 in 0 W/m2
04:19 64.3 °F 59.9 °F 29.90 in Calm   1.6 mph 85.7% 0.00 in 0 W/m2
04:24 64.2 °F 59.5 °F 29.90 in Calm   1.8 mph 85% 0.00 in 0 W/m2
04:29 64.2 °F 59.5 °F 29.91 in Calm   1.8 mph 85% 0.00 in 0 W/m2
04:34 64.4 °F 59.7 °F 29.90 in North 0.1 mph 1.6 mph 85.2% 0.00 in 0 W/m2
04:39 64.4 °F 59.7 °F 29.90 in Calm   1.3 mph 85% 0.00 in 0 W/m2
04:44 64.4 °F 59.7 °F 29.90 in Calm   1.6 mph 85% 0.00 in 0 W/m2
04:49 64.5 °F 59.8 °F 29.91 in NNE 0.2 mph 1.8 mph 85% 0.00 in 0 W/m2
04:54 64.8 °F 60 °F 29.91 in Calm   1.6 mph 84.7% 0.00 in 0 W/m2
04:59 64.8 °F 60.1 °F 29.91 in Calm   1.1 mph 85% 0.00 in 0 W/m2
05:04 64.8 °F 60.1 °F 29.92 in Calm   1.3 mph 85% 0.00 in 0 W/m2
05:09 64.6 °F 59.9 °F 29.91 in Calm   1.1 mph 85% 0.00 in 0 W/m2
05:14 64.6 °F 60 °F 29.91 in Calm   1.3 mph 85.3% 0.00 in 0 W/m2
05:19 64.4 °F 60.1 °F 29.91 in Calm   1.3 mph 86% 0.00 in 0 W/m2
05:24 64.3 °F 60.2 °F 29.91 in Calm   1.1 mph 86.5% 0.00 in 0 W/m2
05:29 64.4 °F 60.4 °F 29.91 in Calm   1.1 mph 87% 0.00 in 0 W/m2
05:34 64.3 °F 60.4 °F 29.92 in Calm   1.1 mph 87% 0.00 in 0 W/m2
05:39 64.3 °F 60.4 °F 29.92 in Calm   1.1 mph 87% 0.00 in 0 W/m2
05:44 64.4 °F 60.4 °F 29.92 in Calm   1.3 mph 87% 0.00 in 0 W/m2
05:49 64.2 °F 60.3 °F 29.91 in Calm   1.3 mph 87% 0.00 in 0 W/m2
05:54 64.3 °F 60.3 °F 29.92 in Calm   1.3 mph 87% 0.00 in 0 W/m2
05:59 64.4 °F 60.4 °F 29.92 in Calm   1.3 mph 87% 0.00 in 0 W/m2
06:04 64.3 °F 60.4 °F 29.92 in Calm   1.1 mph 87.2% 0.00 in 0 W/m2
06:09 64.4 °F 60.4 °F 29.92 in Calm   1.3 mph 87.1% 0.00 in 2 W/m2
06:14 64.4 °F 60.5 °F 29.92 in Calm   1.3 mph 87.3% 0.00 in 3 W/m2
06:19 64.5 °F 60.6 °F 29.92 in North 0.1 mph 1.8 mph 87.2% 0.00 in 3 W/m2
06:24 64.5 °F 60.5 °F 29.91 in Calm   1.6 mph 86.9% 0.00 in 2 W/m2
06:29 64.7 °F 60.1 °F 29.91 in SE 0.1 mph 1.8 mph 85.3% 0.00 in 4 W/m2
06:34 65.1 °F 59.9 °F 29.92 in Calm   1.6 mph 83.4% 0.00 in 6 W/m2
06:39 65.4 °F 60.1 °F 29.92 in West 0.1 mph 2 mph 82.6% 0.00 in 8 W/m2
06:44 65.9 °F 60.5 °F 29.92 in SW 0.3 mph 2 mph 82.8% 0.00 in 14 W/m2
06:49 65.8 °F 60.6 °F 29.92 in Calm   1.3 mph 83.1% 0.00 in 15 W/m2
06:54 65.8 °F 60.5 °F 29.92 in Calm   1.1 mph 83.2% 0.00 in 11 W/m2
06:59 65.8 °F 60.5 °F 29.92 in Calm     82.8% 0.00 in 10 W/m2
07:04 66 °F 60.7 °F 29.93 in Calm   1.6 mph 83% 0.00 in 12 W/m2
07:09 66.1 °F 60.7 °F 29.92 in NW 0.3 mph 1.6 mph 82.6% 0.00 in 15 W/m2
07:14 66.3 °F 61.1 °F 29.92 in SE 0.2 mph 1.6 mph 83.7% 0.00 in 15 W/m2
07:19 66.2 °F 60.8 °F 29.93 in East 0.3 mph 1.6 mph 82.7% 0.00 in 17 W/m2
07:24 66.3 °F 60.7 °F 29.92 in SE 0.4 mph 1.8 mph 82.1% 0.00 in 36 W/m2
07:29 66.4 °F 61 °F 29.92 in SSE 0.4 mph 2 mph 82.6% 0.00 in 58 W/m2
07:34 66.8 °F 60.5 °F 29.92 in West 0.5 mph 2.7 mph 80.1% 0.00 in 53 W/m2
07:39 67.4 °F 60.5 °F 29.92 in WSW 0.4 mph 2.7 mph 78.5% 0.00 in 49 W/m2
07:44 67.6 °F 60.6 °F 29.92 in Calm   2 mph 78% 0.00 in 69 W/m2
07:49 67.8 °F 60.9 °F 29.93 in SW 0.1 mph 1.6 mph 78.8% 0.00 in 70 W/m2
07:54 67.8 °F 61.1 °F 29.93 in Calm   1.6 mph 79.4% 0.00 in 68 W/m2
07:59 68 °F 60.9 °F 29.93 in West 0.3 mph 3.4 mph 78.2% 0.00 in 72 W/m2
08:04 68.2 °F 61.2 °F 29.93 in SSE 0.3 mph 2.2 mph 78.8% 0.00 in 99 W/m2
08:09 68.5 °F 61.3 °F 29.93 in South 0.3 mph 2.2 mph 77.9% 0.00 in 107 W/m2
08:14 68.9 °F 61.1 °F 29.93 in West 0.7 mph 3.4 mph 76.2% 0.00 in 110 W/m2
08:19 69.2 °F 61.2 °F 29.93 in West 1.1 mph 4.5 mph 75.6% 0.00 in 112 W/m2
08:24 69.5 °F 61.4 °F 29.93 in West 0.6 mph 3.4 mph 75.5% 0.00 in 118 W/m2
08:29 69.8 °F 61.5 °F 29.93 in West 0.2 mph 2.7 mph 75% 0.00 in 121 W/m2
08:34 70.1 °F 62 °F 29.93 in Calm   2.2 mph 75.7% 0.00 in 125 W/m2
08:39 70.3 °F 62.3 °F 29.93 in SW 0.1 mph 2.5 mph 75.8% 0.00 in 126 W/m2
08:44 70.6 °F 62.5 °F 29.93 in NW 0.1 mph 2.5 mph 75.3% 0.00 in 136 W/m2
08:49 71.1 °F 62.7 °F 29.93 in SSW 0.2 mph 2.5 mph 74.7% 0.00 in 151 W/m2
08:54 71.2 °F 62.6 °F 29.93 in SSW 0.5 mph 2.5 mph 74.1% 0.00 in 157 W/m2
08:59 71.3 °F 62.6 °F 29.93 in WSW 0.7 mph 3.6 mph 74% 0.00 in 155 W/m2
09:04 71.3 °F 62.4 °F 29.93 in SSE 0.5 mph 2.5 mph 73.4% 0.00 in 126 W/m2
09:09 71.2 °F 62.6 °F 29.93 in ESE 0.6 mph 2.5 mph 74.2% 0.00 in 96 W/m2
09:14 70.9 °F 62.5 °F 29.93 in SSE 0.3 mph 2 mph 74.6% 0.00 in 103 W/m2
09:19 71.2 °F 62.5 °F 29.94 in West 0.3 mph 3.1 mph 74.1% 0.00 in 116 W/m2
09:24 71.4 °F 62.9 °F 29.93 in Calm     74.3% 0.00 in 127 W/m2
09:29 71.4 °F 62.9 °F 29.92 in South 0.1 mph 2 mph 74.4% 0.00 in 147 W/m2
09:34 71.8 °F 63.1 °F 29.93 in SW 0.1 mph 2 mph 74.2% 0.00 in 155 W/m2
09:39 72.2 °F 63.4 °F 29.93 in West 0.8 mph 3.4 mph 73.8% 0.00 in 154 W/m2
09:44 72.4 °F 63.1 °F 29.93 in WSW 0.2 mph 1.8 mph 72.7% 0.00 in 181 W/m2
09:49 72.6 °F 63.1 °F 29.92 in West 0.8 mph 3.6 mph 72.1% 0.00 in 204 W/m2
09:54 72.9 °F 63.3 °F 29.92 in West 1.3 mph 3.1 mph 72% 0.00 in 197 W/m2
09:59 73.1 °F 63.8 °F 29.93 in SSW 0.4 mph 3.1 mph 72.5% 0.00 in 192 W/m2
10:04 73.7 °F 63.8 °F 29.93 in WNW 0.5 mph 3.8 mph 71.2% 0.00 in 151 W/m2
10:09 73.5 °F 63.4 °F 29.92 in West 1.5 mph 4.7 mph 70.8% 0.00 in 138 W/m2
10:14 73.2 °F 63.9 °F 29.92 in WNW 0.6 mph 4.9 mph 72.5% 0.00 in 110 W/m2
10:19 73.1 °F 64.3 °F 29.92 in Calm   1.3 mph 74% 0.00 in 134 W/m2
10:24 73 °F 64.2 °F 29.92 in SE 0.5 mph 2 mph 73.8% 0.00 in 115 W/m2
10:29 72.6 °F 63.9 °F 29.92 in SSE 0.3 mph 2 mph 74.6% 0.00 in 88 W/m2
10:34 72.5 °F 63.7 °F 29.91 in WSW 1.1 mph 4.3 mph 74.2% 0.00 in 78 W/m2
10:39 72.4 °F 63.6 °F 29.92 in SW 0.7 mph 3.4 mph 74% 0.00 in 51 W/m2
10:44 72.1 °F 63.8 °F 29.91 in SSW 0.8 mph 2.5 mph 74.9% 0.00 in 82 W/m2
10:49 72.3 °F 63.7 °F 29.91 in WSW 1 mph 4.3 mph 74.5% 0.00 in 118 W/m2
10:54 72.4 °F 63.7 °F 29.92 in WSW 1.3 mph 4.5 mph 74.4% 0.00 in 124 W/m2
10:59 72.4 °F 64 °F 29.92 in SSW 1.2 mph 5.4 mph 75% 0.00 in 174 W/m2
11:04 72.8 °F 64 °F 29.92 in WNW 1.1 mph 6.5 mph 74% 0.00 in 207 W/m2
11:09 73.3 °F 64.3 °F 29.92 in WSW 1.2 mph 5.1 mph 73.4% 0.00 in 216 W/m2
11:14 73.3 °F 64.4 °F 29.92 in SW 1.3 mph 4.9 mph 73.7% 0.00 in 259 W/m2
11:19 74 °F 65.1 °F 29.91 in South 0.7 mph 4.7 mph 73.7% 0.00 in 297 W/m2
11:24 74.8 °F 64.9 °F 29.91 in West 1.7 mph 5.8 mph 71.3% 0.00 in 363 W/m2
11:29 75.1 °F 64.9 °F 29.91 in West 1.4 mph 5.1 mph 70.6% 0.00 in 330 W/m2
11:34 75.5 °F 65 °F 29.92 in South 0.9 mph 4.3 mph 70.1% 0.00 in 288 W/m2
11:39 75.7 °F 64.9 °F 29.92 in SSE 1.4 mph 4 mph 69.3% 0.00 in 472 W/m2
11:44 76.4 °F 65.1 °F 29.92 in WSW 2.7 mph 6.3 mph 68.1% 0.00 in 465 W/m2
11:49 75.8 °F 64.9 °F 29.92 in SSE 1.1 mph 6.3 mph 68.8% 0.00 in 302 W/m2
11:54 76.3 °F 65.1 °F 29.92 in WSW 1 mph 3.6 mph 68.4% 0.00 in 318 W/m2
11:59 76.5 °F 65.1 °F 29.92 in West 2 mph 6 mph 67.9% 0.00 in 273 W/m2
12:04 77.2 °F 65.4 °F 29.92 in WSW 0.7 mph 4 mph 67.3% 0.00 in 294 W/m2
12:09 77.9 °F 64.4 °F 29.92 in West 1.7 mph 4.7 mph 63.2% 0.00 in 313 W/m2
12:14 77.5 °F 63.7 °F 29.92 in WSW 1.8 mph 7.8 mph 62.5% 0.00 in 422 W/m2
12:19 77.7 °F 64.4 °F 29.92 in NNW 0.9 mph 4.5 mph 63.6% 0.00 in 342 W/m2
12:24 78.2 °F 65 °F 29.92 in East 0.5 mph 3.4 mph 64.2% 0.00 in 499 W/m2
12:29 78.8 °F 64.6 °F 29.92 in West 1.6 mph 5.1 mph 61.8% 0.00 in 1045 W/m2
12:34 79 °F 64.5 °F 29.92 in SSW 1.9 mph 5.4 mph 61.3% 0.00 in 815 W/m2
12:39 79.7 °F 65 °F 29.92 in WSW 0.8 mph 4.3 mph 60.8% 0.00 in 908 W/m2
12:44 79.2 °F 64.6 °F 29.92 in SW 2 mph 5.1 mph 61.2% 0.00 in 570 W/m2
12:49 78.7 °F 64 °F 29.92 in WSW 1.7 mph 6 mph 60.9% 0.00 in 793 W/m2
12:54 78.4 °F 63.7 °F 29.92 in NW 1.5 mph 4.3 mph 60.7% 0.00 in 184 W/m2
12:59 78.5 °F 64.8 °F 29.92 in WNW 0.4 mph 3.1 mph 62.8% 0.00 in 210 W/m2
13:04 78.5 °F 64.8 °F 29.92 in WSW 1.2 mph 4.5 mph 62.6% 0.00 in 194 W/m2
13:09 78.2 °F 64.7 °F 29.92 in WSW 0.9 mph 4.5 mph 63.4% 0.00 in 178 W/m2
13:14 78.2 °F 64.5 °F 29.92 in SSW 1 mph 4.3 mph 63.1% 0.00 in 235 W/m2
13:19 78.1 °F 64.7 °F 29.92 in NE 0.7 mph 3.4 mph 63.6% 0.00 in 454 W/m2
13:24 78.5 °F 65 °F 29.92 in North 0.7 mph 4 mph 63.3% 0.00 in 694 W/m2
13:29 79.2 °F 65 °F 29.92 in NNW 0.6 mph 4 mph 61.9% 0.00 in 393 W/m2
13:34 79.3 °F 64.9 °F 29.92 in NNW 1.9 mph 5.8 mph 61.4% 0.00 in 512 W/m2
13:39 79.2 °F 64.7 °F 29.92 in NW 0.8 mph 4.7 mph 61.2% 0.00 in 267 W/m2
13:44 79.1 °F 65.2 °F 29.92 in SE 0.1 mph 2.7 mph 62.7% 0.00 in 255 W/m2
13:49 78.7 °F 65.1 °F 29.92 in WNW 0.9 mph 3.4 mph 63% 0.00 in 138 W/m2
13:54 77.8 °F 65.1 °F 29.92 in North 0.3 mph 3.8 mph 65.1% 0.00 in 139 W/m2
13:59 77.2 °F 65.8 °F 29.92 in North 0.1 mph 3.1 mph 68% 0.00 in 99 W/m2
14:04 76.9 °F 65.9 °F 29.92 in Calm   1.1 mph 69.1% 0.00 in 145 W/m2
14:09 76.5 °F 66.8 °F 29.92 in NNW 0.5 mph 3.4 mph 72% 0.05 in 119 W/m2
14:14 75.4 °F 68.4 °F 29.92 in NNW 0.1 mph 2.5 mph 79.2% 0.28 in 897 W/m2
14:19 74.8 °F 69.6 °F 29.92 in Calm   1.8 mph 83.9% 0.31 in 275 W/m2
14:24 74.8 °F 70.4 °F 29.92 in Calm   1.6 mph 86.1% 0.19 in 717 W/m2
14:29 75.3 °F 70.9 °F 29.92 in NNW 0.4 mph 2.2 mph 86.2% 0.02 in 627 W/m2
14:34 75.6 °F 71.4 °F 29.92 in NW 0.5 mph 3.8 mph 86.8% 0.00 in 718 W/m2
14:39 75.9 °F 71.1 °F 29.92 in NNW 0.6 mph 2.2 mph 85.2% 0.00 in 633 W/m2
14:44 76.2 °F 70.9 °F 29.92 in NW 0.5 mph 3.8 mph 84% 0.00 in 312 W/m2
14:49 76.2 °F 70.8 °F 29.92 in West 0.2 mph 2 mph 83.4% 0.00 in 284 W/m2
14:54 76 °F 70 °F 29.92 in NNW 0.5 mph 3.1 mph 81.6% 0.00 in 240 W/m2
14:59 76.1 °F 69.8 °F 29.92 in Calm   1.3 mph 81% 0.00 in 329 W/m2
15:04 76.6 °F 69.6 °F 29.92 in West 0.2 mph 2.7 mph 79.2% 0.00 in 332 W/m2
15:09 76.4 °F 69.4 °F 29.91 in WNW 0.1 mph 1.6 mph 79% 0.00 in 811 W/m2
15:14 76.8 °F 69.4 °F 29.90 in WSW 0.4 mph 2.7 mph 78.2% 0.00 in 940 W/m2
15:19 78.8 °F 70.7 °F 29.91 in NW 0.6 mph 3.4 mph 76.3% 0.00 in 947 W/m2
15:24 78.4 °F 69.1 °F 29.90 in SW 0.7 mph 3.4 mph 73.3% 0.00 in 903 W/m2
15:29 78.6 °F 69.6 °F 29.90 in NW 1 mph 3.6 mph 74% 0.00 in 331 W/m2
15:34 77.8 °F 69.4 °F 29.90 in WSW 0.1 mph 2 mph 75.3% 0.00 in 151 W/m2
15:39 77.5 °F 69.3 °F 29.89 in Calm   1.8 mph 75.8% 0.00 in 517 W/m2
15:44 77.5 °F 69 °F 29.89 in South 0.2 mph 2.2 mph 75.3% 0.00 in 803 W/m2
15:49 78.6 °F 69.9 °F 29.89 in North 0.1 mph 2.2 mph 74.9% 0.00 in 793 W/m2
15:54 79.5 °F 69.8 °F 29.88 in WSW 0.6 mph 2.5 mph 72.3% 0.00 in 808 W/m2
15:59 79.6 °F 69.3 °F 29.88 in South 1.2 mph 3.1 mph 70.8% 0.00 in 865 W/m2
16:04 78.6 °F 68.5 °F 29.88 in South 1.4 mph 2.9 mph 71.1% 0.00 in 493 W/m2
16:09 77.3 °F 67.6 °F 29.89 in SSE 0.1 mph 2.9 mph 72% 0.00 in 165 W/m2
16:14 77 °F 68.7 °F 29.89 in SSE 0.5 mph 4.9 mph 75.5% 0.00 in 70 W/m2
16:19 76.1 °F 68.2 °F 29.88 in SSE 0.5 mph 4.9 mph 76.3% 0.00 in 37 W/m2
16:24 76.1 °F 68.5 °F 29.89 in NNW 0.2 mph 1.6 mph 77.5% 0.00 in 41 W/m2
16:29 75.5 °F 69 °F 29.89 in North 0.7 mph 1.8 mph 80.6% 0.05 in 41 W/m2
16:34 74.6 °F 69.3 °F 29.89 in Calm   1.3 mph 83.9% 0.07 in 56 W/m2
16:39 74 °F 70 °F 29.88 in Calm   1.1 mph 87.2% 0.07 in 54 W/m2
16:44 73.8 °F 70.2 °F 29.88 in Calm   1.1 mph 88.4% 0.05 in 42 W/m2
16:49 72.9 °F 70.2 °F 29.89 in WSW 0.2 mph 1.6 mph 91.1% 0.02 in 27 W/m2
16:54 72.5 °F 70.3 °F 29.90 in Calm   1.3 mph 93% 0.02 in 23 W/m2
16:59 72.5 °F 70.3 °F 29.90 in Calm   1.1 mph 93% 0.05 in 22 W/m2
17:04 72.1 °F 70.3 °F 29.89 in Calm   1.1 mph 93.8% 0.05 in 90 W/m2
17:09 71.9 °F 70.3 °F 29.89 in NE 0.1 mph 1.3 mph 94.4% 0.14 in 133 W/m2
17:14 72.2 °F 70.7 °F 29.89 in WSW 0.6 mph 2.2 mph 94.9% 0.17 in 133 W/m2
17:19 71.9 °F 70.3 °F 29.89 in SW 0.1 mph 1.6 mph 94.8% 0.14 in 129 W/m2
17:24 72 °F 70.5 °F 29.90 in SW 0.3 mph 2.2 mph 94.8% 0.02 in 176 W/m2
17:29 72.3 °F 70.9 °F 29.90 in WSW 0.5 mph 2.5 mph 95% 0.02 in 159 W/m2
17:34 72.4 °F 71 °F 29.90 in SSW 0.1 mph 2.2 mph 95% 0.02 in 110 W/m2
17:39 71.6 °F 69.8 °F 29.91 in WSW 1.2 mph 9.6 mph 94% 0.02 in 247 W/m2
17:44 71.6 °F 69.2 °F 29.90 in West 0.7 mph 3.4 mph 92.2% 0.00 in 516 W/m2
17:49 72 °F 68.9 °F 29.91 in NNW 0.7 mph 3.6 mph 89.8% 0.00 in 255 W/m2
17:54 72.4 °F 69.2 °F 29.91 in WNW 0.1 mph 2 mph 89.4% 0.00 in 316 W/m2
17:59 72.9 °F 68.8 °F 29.90 in West 0.9 mph 2.7 mph 87.1% 0.00 in 394 W/m2
18:04 74.3 °F 68.7 °F 29.90 in West 0.8 mph 3.1 mph 82.8% 0.00 in 398 W/m2
18:09 75.2 °F 69.1 °F 29.89 in WNW 1.8 mph 3.1 mph 81.5% 0.00 in 343 W/m2
18:14 75.5 °F 69 °F 29.89 in WNW 1 mph 3.1 mph 80.4% 0.00 in 332 W/m2
18:19 75.6 °F 69.4 °F 29.90 in WSW 1.2 mph 3.4 mph 81.1% 0.00 in 314 W/m2
18:24 75.6 °F 69.1 °F 29.90 in WNW 0.9 mph 3.4 mph 80.4% 0.00 in 297 W/m2
18:29 75.1 °F 68.8 °F 29.90 in SW 0.5 mph 2.9 mph 81.1% 0.00 in 279 W/m2
18:34 75.7 °F 68.8 °F 29.90 in West 0.6 mph 3.8 mph 79.2% 0.00 in 265 W/m2
18:39 76.6 °F 68.5 °F 29.90 in WNW 1.2 mph 4 mph 76% 0.00 in 250 W/m2
18:44 76.3 °F 68 °F 29.90 in NW 1.5 mph 5.4 mph 75.4% 0.00 in 233 W/m2
18:49 76.6 °F 68.3 °F 29.91 in WNW 0.8 mph 2.7 mph 75.5% 0.00 in 207 W/m2
18:54 75.6 °F 68.7 °F 29.91 in Calm   2 mph 79.2% 0.00 in 75 W/m2
18:59 73.7 °F 68.3 °F 29.90 in Calm   1.6 mph 83.1% 0.00 in 31 W/m2
19:04 72.6 °F 68.1 °F 29.90 in NNW 0.4 mph 1.8 mph 85.8% 0.00 in 26 W/m2
19:09 72 °F 67.5 °F 29.91 in Calm   1.6 mph 86.1% 0.00 in 24 W/m2
19:14 71.3 °F 67.6 °F 29.93 in North 0.6 mph 1.8 mph 88% 0.09 in 17 W/m2
19:19 71.1 °F 68.2 °F 29.93 in North 0.3 mph 1.8 mph 90.5% 0.17 in 13 W/m2
19:24 70.4 °F 68 °F 29.92 in East 0.6 mph 2.5 mph 92.4% 0.66 in 11 W/m2
19:29 69.5 °F 67.8 °F 29.93 in SSE 0.9 mph 2.5 mph 94.2% 1.20 in 9 W/m2
19:34 69 °F 67.5 °F 29.93 in ESE 0.3 mph 2 mph 95% 1.35 in 35 W/m2
19:39 68 °F 66.7 °F 29.93 in SSE 1.2 mph 2.5 mph 95.6% 1.70 in 69 W/m2
19:44 67.3 °F 66 °F 29.93 in NNE 0.6 mph 2.5 mph 96% 1.58 in 59 W/m2
19:49 67.1 °F 65.9 °F 29.93 in SSE 0.8 mph 3.4 mph 96.2% 0.94 in 57 W/m2
19:54 66.6 °F 65.3 °F 29.93 in NNW 0.2 mph 2 mph 95.9% 0.02 in 72 W/m2
19:59 66.2 °F 64.9 °F 29.93 in ENE 0.2 mph 2 mph 96% 0.00 in 51 W/m2
20:04 66.2 °F 64.9 °F 29.93 in WNW 0.6 mph 2.5 mph 96% 0.00 in 34 W/m2
20:09 66.2 °F 64.9 °F 29.93 in NE 0.1 mph 2.5 mph 96% 0.00 in 30 W/m2
20:14 66 °F 64.8 °F 29.93 in NNE 0.5 mph 1.8 mph 96% 0.00 in 25 W/m2
20:19 65.8 °F 64.8 °F 29.93 in Calm   1.8 mph 96.5% 0.00 in 21 W/m2
20:24 65.7 °F 64.8 °F 29.94 in Calm   1.6 mph 97% 0.00 in 17 W/m2
20:29 65.7 °F 64.8 °F 29.93 in NE 0.3 mph 1.6 mph 97% 0.00 in 14 W/m2
20:34 65.5 °F 64.6 °F 29.94 in Calm   1.6 mph 97% 0.00 in 12 W/m2
Monroeville, Pennsylvania, USA
Compliments of Weather Underground - 4 mb